Aviation Digital Data Service (ADDS)

Output produced by METARs form (0019 UTC 02 October 2014)
found at http://aviationweather.gov/adds/metars/
 
KFRG 020011Z 02007KT 10SM FEW010 OVC014 17/14 A3006 RMK AO2 T01670144
KFRG 012353Z 01008KT 10SM FEW011 BKN016 OVC023 17/14 A3006 RMK AO2 SLP177 T01670144 10178 20167 53009
KFRG 012334Z 01009KT 9SM SCT011 BKN017 OVC025 17/14 A3005 RMK AO2 T01670144
KFRG 012324Z 03007KT 6SM BR BKN011 OVC017 17/14 A3005 RMK AO2 T01670144
KISP 012356Z 01010KT 10SM SCT012 BKN019 BKN070 BKN160 BKN230 16/14 A3003
KISP 012342Z 0200/0224 02012KT 5SM -SHRADZ BR SCT008 BKN015 
     FM020600 02012KT 3SM -SHRADZ BR BKN008 
     FM021500 02015G21KT P6SM SCT008 OVC015 
     FM022100 03012KT P6SM SCT015 OVC025
       
KJFK 012351Z 02012KT 10SM FEW017 OVC024 18/13 A3007 RMK AO2 SLP181 T01780133 10183 20178 53011 $
KJFK 012342Z 0200/0306 01012KT P6SM SCT015 BKN025 
     TEMPO 0201/0204 BKN015 
     FM020400 01012KT P6SM BKN015 BKN025 
     TEMPO 0207/0211 5SM -SHRADZ BR 
     FM021700 02014G20KT P6SM SCT015 OVC025 
     FM022200 03010KT P6SM SCT025 SCT035
       
KBDR 012352Z 03009KT 4SM -RA BR FEW007 SCT011 OVC024 16/14 A3007 RMK AO2 RAB13 SLP181 P0001 60001 T01560144 10178 20156 51008
KBDR 012349Z 03008KT 5SM -RA BR SCT008 OVC024 16/14 A3007 RMK AO2 RAB13 P0001
KBDR 012342Z 0200/0224 03010KT P6SM SCT015 BKN025 
     TEMPO 0202/0204 BKN015 
     FM020400 02010KT 5SM -SHRADZ BR BKN015 BKN025 
     FM021800 02014G20KT P6SM SCT015 OVC025 
     FM022300 03010KT P6SM SCT025 SCT035